Time;durP1;ratioP1;P1;durP2;ratioP2;P2;SDS_P1;SDS_P2;PMS_P1;PMS_P2;Temp;Humidity;BMP_temperature;BMP_pressure;BME280_temperature;BME280_humidity;BME280_pressure;Samples;Min_cycle;Max_cycle;Signal;HPM_P1;HPM_P2
2022/07/16 00:04:00;;;;;;;4.32;2.25;;;;;;;15.59;63.85;101941.56;5348967;27;20031;-75
2022/07/16 00:06:31;;;;;;;8.02;2.45;;;;;;;15.44;64.18;101943.53;5347383;27;20030;-75
2022/07/16 00:09:03;;;;;;;8.07;2.90;;;;;;;15.53;63.86;101937.25;5347617;27;20390;-75
2022/07/16 00:11:35;;;;;;;7.20;2.85;;;;;;;15.52;63.92;101946.06;5348380;27;20077;-75
2022/07/16 00:14:06;;;;;;;7.53;3.13;;;;;;;15.58;63.94;101937.19;5347505;27;20059;-74
2022/07/16 00:16:38;;;;;;;6.93;2.97;;;;;;;15.49;63.88;101940.84;5348814;27;20426;-74
2022/07/16 00:19:19;;;;;;;5.20;2.43;;;;;;;15.50;63.87;101943.44;5349127;27;20160;-75
2022/07/16 00:21:53;;;;;;;6.40;2.97;;;;;;;15.45;64.00;101950.50;5355210;27;20092;-74
2022/07/16 00:24:25;;;;;;;6.35;2.40;;;;;;;15.67;63.65;101951.06;5350546;27;20063;-74
2022/07/16 00:26:57;;;;;;;10.05;3.10;;;;;;;15.52;63.80;101956.56;5348754;27;20039;-74
2022/07/16 00:29:29;;;;;;;5.90;3.17;;;;;;;15.42;64.10;101949.69;5348755;27;20066;-74
2022/07/16 00:32:00;;;;;;;6.10;3.50;;;;;;;15.23;64.48;101955.22;5347104;27;20027;-74
2022/07/16 00:34:33;;;;;;;9.50;3.67;;;;;;;15.14;64.78;101952.69;5348737;27;20031;-74
2022/07/16 00:37:04;;;;;;;;;;;;;;;15.26;63.25;101949.03;5348511;27;20030;-74
2022/07/16 00:39:35;;;;;;;7.30;3.30;;;;;;;15.22;64.46;101952.59;5347517;27;19915;-74
2022/07/16 00:42:07;;;;;;;7.53;3.40;;;;;;;15.14;65.04;101952.69;5348277;27;20382;-74
2022/07/16 00:44:39;;;;;;;5.55;3.10;;;;;;;15.11;65.52;101950.13;5348403;27;20068;-74
2022/07/16 00:47:10;;;;;;;6.00;3.42;;;;;;;15.09;65.47;101958.00;5348303;27;20074;-74
2022/07/16 00:49:42;;;;;;;7.37;3.43;;;;;;;15.29;65.09;101951.63;5346351;27;20042;-75
2022/07/16 00:52:13;;;;;;;11.87;3.20;;;;;;;15.23;65.27;101949.06;5348180;27;20108;-75
2022/07/16 00:54:45;;;;;;;6.40;3.03;;;;;;;15.53;64.55;101946.91;5347695;27;20031;-74
2022/07/16 00:57:17;;;;;;;5.20;3.37;;;;;;;15.56;64.24;101950.34;5347990;27;20039;-74
2022/07/16 00:59:48;;;;;;;6.72;3.08;;;;;;;15.62;64.04;101950.28;5347501;27;20023;-75
2022/07/16 01:02:20;;;;;;;7.53;3.43;;;;;;;15.78;64.04;101945.69;5348400;27;20433;-76
2022/07/16 01:04:52;;;;;;;5.33;3.53;;;;;;;15.87;63.48;101952.53;5347445;27;20534;-75
2022/07/16 01:07:23;;;;;;;6.65;3.47;;;;;;;15.77;64.00;101948.31;5346331;27;20043;-75
2022/07/16 01:09:57;;;;;;;6.97;3.27;;;;;;;15.77;63.95;101950.97;5347807;27;20031;-76
2022/07/16 01:12:29;;;;;;;7.75;3.15;;;;;;;15.77;63.62;101941.31;5347751;27;20485;-75
2022/07/16 01:15:00;;;;;;;7.88;2.83;;;;;;;15.78;63.63;101944.81;5346252;27;20061;-76
2022/07/16 01:17:32;;;;;;;6.90;3.77;;;;;;;15.76;63.96;101943.91;5346916;27;20027;-76
2022/07/16 01:20:05;;;;;;;8.87;3.47;;;;;;;15.75;63.82;101944.84;5346942;27;20034;-75
2022/07/16 01:22:37;;;;;;;7.38;2.80;;;;;;;15.86;63.78;101935.03;5347119;27;20370;-75
2022/07/16 01:25:10;;;;;;;7.00;3.10;;;;;;;15.85;63.81;101935.94;5347154;27;20079;-74
2022/07/16 01:27:41;;;;;;;8.90;2.90;;;;;;;15.90;63.54;101927.97;5347229;27;20027;-74
2022/07/16 01:30:13;;;;;;;7.13;3.17;;;;;;;15.80;63.50;101929.88;5347339;27;20476;-75
2022/07/16 01:32:44;;;;;;;7.17;3.20;;;;;;;15.81;63.68;101935.13;5346937;27;20058;-76
2022/07/16 01:35:16;;;;;;;4.13;3.00;;;;;;;15.66;64.19;101935.31;5347215;27;20437;-75
2022/07/16 01:37:47;;;;;;;5.77;3.07;;;;;;;15.56;64.39;101947.72;5347404;27;20123;-75
2022/07/16 01:40:19;;;;;;;5.63;2.83;;;;;;;15.41;64.66;101934.84;5346874;27;20034;-74
2022/07/16 01:42:50;;;;;;;9.83;3.40;;;;;;;15.39;64.88;101945.38;5345904;27;20474;-75
2022/07/16 01:45:22;;;;;;;6.23;3.23;;;;;;;15.38;64.83;101946.25;5347380;27;20027;-75
2022/07/16 01:47:53;;;;;;;12.43;3.80;;;;;;;15.47;64.32;101954.00;5346805;27;20473;-76
2022/07/16 01:50:24;;;;;;;7.70;3.73;;;;;;;15.39;64.65;101953.25;5347133;27;20575;-75
2022/07/16 01:52:56;;;;;;;5.23;2.93;;;;;;;15.34;65.18;101955.03;5346628;27;20194;-75
2022/07/16 01:55:27;;;;;;;6.57;3.03;;;;;;;15.32;65.19;101948.94;5347102;27;20038;-74
2022/07/16 01:57:59;;;;;;;5.33;2.90;;;;;;;15.27;65.27;101954.25;5346067;27;20031;-75
2022/07/16 02:00:31;;;;;;;7.70;2.77;;;;;;;15.32;65.16;101944.56;5345345;27;20035;-74
2022/07/16 02:03:04;;;;;;;5.07;2.70;;;;;;;15.45;65.08;101940.00;5345560;27;20035;-74
2022/07/16 02:05:36;;;;;;;6.97;2.50;;;;;;;15.34;65.00;101933.16;5347071;27;20034;-75
2022/07/16 02:08:08;;;;;;;4.80;2.70;;;;;;;15.35;64.99;101942.78;5346580;27;20474;-74
2022/07/16 02:10:39;;;;;;;6.68;2.90;;;;;;;15.32;64.92;101934.03;5345391;27;20031;-75
2022/07/16 02:13:11;;;;;;;7.93;3.80;;;;;;;15.38;65.00;101934.88;5346900;27;20121;-75
2022/07/16 02:15:42;;;;;;;6.07;2.83;;;;;;;15.35;65.48;101932.28;5345929;27;20089;-74
2022/07/16 02:18:13;;;;;;;5.10;2.80;;;;;;;15.39;65.23;101929.59;5346993;27;20100;-75
2022/07/16 02:20:46;;;;;;;6.83;3.67;;;;;;;15.46;65.19;101927.75;5359178;27;20120;-75
2022/07/16 02:23:17;;;;;;;;;;;;;;;15.46;63.98;101933.84;5360718;27;20049;-75
2022/07/16 02:25:49;;;;;;;5.40;2.92;;;;;;;15.36;65.11;101927.00;5360753;28;19911;-75
2022/07/16 02:28:20;;;;;;;4.97;2.97;;;;;;;15.46;64.71;101927.75;5352189;28;20043;-74
2022/07/16 02:30:51;;;;;;;10.07;3.27;;;;;;;15.49;64.92;101932.97;5350043;28;20382;-75
2022/07/16 02:33:23;;;;;;;5.53;3.47;;;;;;;15.44;64.85;101926.88;5352848;27;20051;-75
2022/07/16 02:35:54;;;;;;;10.57;3.53;;;;;;;15.44;64.79;101933.03;5348134;27;20151;-74
2022/07/16 02:38:26;;;;;;;6.33;3.63;;;;;;;15.49;64.66;101925.94;5349335;27;20038;-74
2022/07/16 02:40:57;;;;;;;8.13;3.70;;;;;;;15.40;64.89;101928.69;5346116;27;20050;-75
2022/07/16 02:43:28;;;;;;;7.27;3.20;;;;;;;15.46;64.85;101927.75;5346692;27;20027;-75
2022/07/16 02:46:00;;;;;;;6.93;3.40;;;;;;;15.42;65.06;101920.78;5347255;27;20141;-75
2022/07/16 02:48:31;;;;;;;5.93;3.30;;;;;;;15.41;64.90;101917.31;5344990;28;20038;-75
2022/07/16 02:51:02;;;;;;;5.97;3.33;;;;;;;15.49;65.07;101915.41;5346599;27;20027;-76
2022/07/16 02:53:34;;;;;;;6.37;3.80;;;;;;;15.36;64.74;101918.25;5346301;27;20023;-75
2022/07/16 02:56:06;;;;;;;12.37;3.97;;;;;;;15.34;64.90;101917.41;5345079;28;20039;-76
2022/07/16 02:58:38;;;;;;;7.30;3.63;;;;;;;15.35;64.89;101919.16;5346153;27;20035;-74
2022/07/16 03:01:09;;;;;;;10.40;3.80;;;;;;;15.32;65.12;101918.28;5346437;27;20042;-76
2022/07/16 03:03:40;;;;;;;9.70;4.00;;;;;;;15.29;65.34;101920.09;5346441;27;20351;-74
2022/07/16 03:06:12;;;;;;;12.60;3.47;;;;;;;15.27;65.26;101928.00;5346487;27;20471;-74
2022/07/16 03:08:44;;;;;;;8.63;3.87;;;;;;;15.27;65.41;101924.50;5346242;27;20034;-74
2022/07/16 03:11:16;;;;;;;7.78;3.85;;;;;;;15.28;65.54;101935.00;5345534;27;20103;-74
2022/07/16 03:13:47;;;;;;;8.23;4.22;;;;;;;15.29;66.00;101934.13;5345994;27;20080;-74
2022/07/16 03:16:18;;;;;;;9.63;4.30;;;;;;;15.26;65.64;101934.16;5345797;28;20038;-74
2022/07/16 03:18:50;;;;;;;9.13;4.23;;;;;;;15.25;65.80;101935.03;5345635;28;20562;-75
2022/07/16 03:21:21;;;;;;;9.13;4.50;;;;;;;15.21;65.88;101938.59;5344778;28;20039;-75
2022/07/16 03:23:53;;;;;;;9.30;4.60;;;;;;;15.24;65.83;101940.31;5346603;27;20447;-75
2022/07/16 03:26:24;;;;;;;11.90;4.80;;;;;;;15.21;65.93;101938.59;5346127;27;20062;-75
2022/07/16 03:28:55;;;;;;;8.00;3.70;;;;;;;15.22;65.83;101932.44;5345199;27;20105;-75
2022/07/16 03:31:27;;;;;;;7.33;4.13;;;;;;;15.20;66.03;101938.59;5348848;27;20110;-74
2022/07/16 03:33:58;;;;;;;13.60;5.30;;;;;;;15.22;65.97;101949.97;5350287;27;20521;-73
2022/07/16 03:36:30;;;;;;;7.50;4.20;;;;;;;15.21;66.20;101935.97;5350268;27;20114;-74
2022/07/16 03:39:04;;;;;;;8.07;4.60;;;;;;;15.21;66.39;101951.72;5349910;27;20027;-74
2022/07/16 03:41:37;;;;;;;9.25;4.57;;;;;;;15.17;66.65;101951.81;5348875;27;20046;-74
2022/07/16 03:44:11;;;;;;;8.60;4.55;;;;;;;15.16;66.87;101953.53;5349791;27;20031;-75
2022/07/16 03:46:43;;;;;;;11.73;5.07;;;;;;;15.14;67.18;101953.56;5349733;27;20023;-74
2022/07/16 03:49:14;;;;;;;9.67;4.50;;;;;;;15.16;67.38;101950.06;5349690;27;20114;-74
2022/07/16 03:51:46;;;;;;;7.57;4.50;;;;;;;15.16;67.67;101956.16;5349295;27;20037;-75
2022/07/16 03:54:17;;;;;;;7.03;4.53;;;;;;;15.13;68.14;101948.31;5349869;27;20027;-74
2022/07/16 03:56:48;;;;;;;7.13;4.90;;;;;;;15.14;68.55;101956.19;5349304;27;20101;-74
2022/07/16 03:59:20;;;;;;;9.57;5.23;;;;;;;15.16;68.51;101957.94;5349624;27;20516;-75
2022/07/16 04:01:51;;;;;;;7.50;5.17;;;;;;;15.19;68.77;101958.75;5350377;27;20397;-74
2022/07/16 04:04:22;;;;;;;7.13;5.07;;;;;;;15.20;68.96;101964.88;5347851;27;20057;-75
2022/07/16 04:06:54;;;;;;;8.73;5.33;;;;;;;15.24;68.99;101972.69;5348791;27;20137;-75
2022/07/16 04:09:25;;;;;;;7.17;5.07;;;;;;;15.26;69.28;101967.41;5349100;27;20474;-75
2022/07/16 04:11:56;;;;;;;11.40;5.03;;;;;;;15.36;69.20;101968.16;5348896;27;20042;-75
2022/07/16 04:14:28;;;;;;;8.37;6.00;;;;;;;15.29;70.05;101975.25;5347716;27;20110;-76
2022/07/16 04:16:59;;;;;;;8.70;5.60;;;;;;;15.30;70.24;101977.88;5330308;27;20441;-74
2022/07/16 04:19:31;;;;;;;10.73;5.77;;;;;;;15.32;70.91;101986.59;5348725;27;20031;-73
2022/07/16 04:22:02;;;;;;;7.23;5.60;;;;;;;15.36;71.11;101979.56;5349088;27;20023;-74
2022/07/16 04:24:33;;;;;;;10.23;5.33;;;;;;;15.36;71.43;101986.56;5348778;27;20092;-74
2022/07/16 04:27:05;;;;;;;9.73;5.87;;;;;;;15.35;71.86;101984.84;5349105;27;20028;-73
2022/07/16 04:29:36;;;;;;;10.27;5.63;;;;;;;15.39;72.19;101983.88;5348929;27;20031;-74
2022/07/16 04:32:08;;;;;;;11.37;5.63;;;;;;;15.37;72.35;101983.03;5348127;27;20030;-74
2022/07/16 04:34:39;;;;;;;9.30;5.47;;;;;;;15.38;72.73;101984.78;5347723;27;20031;-75
2022/07/16 04:37:10;;;;;;;9.13;6.17;;;;;;;15.36;73.34;101987.44;5348754;27;20031;-74
2022/07/16 04:39:42;;;;;;;8.93;5.60;;;;;;;15.40;74.15;101989.13;5348191;27;20095;-74
2022/07/16 04:42:13;;;;;;;9.47;5.77;;;;;;;15.37;74.14;101989.16;5347515;27;20084;-74
2022/07/16 04:44:45;;;;;;;9.43;5.87;;;;;;;15.37;74.38;101991.78;5347358;27;20042;-74
2022/07/16 04:47:16;;;;;;;12.77;6.37;;;;;;;15.34;75.18;101985.72;5349227;27;20042;-74
2022/07/16 04:49:48;;;;;;;15.85;5.70;;;;;;;15.32;76.03;101989.22;5331286;27;20415;-74
2022/07/16 04:52:19;;;;;;;8.63;5.63;;;;;;;15.32;76.44;101985.72;5353583;27;20032;-74
2022/07/16 04:54:51;;;;;;;10.70;6.47;;;;;;;15.35;76.90;102001.47;5350784;27;20114;-74
2022/07/16 04:57:22;;;;;;;9.83;6.07;;;;;;;15.32;77.48;101994.47;5346870;27;20378;-74
2022/07/16 04:59:54;;;;;;;9.60;5.73;;;;;;;15.34;78.74;102001.47;5348111;27;20038;-75
2022/07/16 05:05:19;;;;;;;15.43;7.13;;;;;;;15.41;81.21;102011.03;5348177;27;20099;-73
2022/07/16 05:07:51;;;;;;;10.02;5.90;;;;;;;15.47;81.39;102000.41;5348054;27;20037;-74
2022/07/16 05:10:24;;;;;;;9.83;5.80;;;;;;;15.52;81.68;102009.13;5346283;27;20031;-73
2022/07/16 05:12:56;;;;;;;7.25;4.97;;;;;;;15.55;82.96;102002.94;5347759;27;20030;-73
2022/07/16 05:15:28;;;;;;;15.15;5.95;;;;;;;15.61;83.55;102016.84;5347853;27;20030;-74
2022/07/16 05:17:59;;;;;;;15.02;5.70;;;;;;;15.66;83.94;102017.69;5348303;27;20042;-73
2022/07/16 05:20:31;;;;;;;7.70;4.90;;;;;;;15.71;84.51;102017.59;5347795;27;20035;-73
2022/07/16 05:23:03;;;;;;;11.50;5.37;;;;;;;15.75;84.75;102023.69;5348522;27;20462;-73
2022/07/16 05:25:35;;;;;;;7.63;5.20;;;;;;;15.81;85.34;102021.88;5332298;27;20147;-74
2022/07/16 05:28:06;;;;;;;8.37;5.00;;;;;;;15.88;85.58;102029.69;5350297;27;20023;-74
2022/07/16 05:30:37;;;;;;;9.83;4.97;;;;;;;15.93;85.31;102033.97;5346843;27;20114;-75
2022/07/16 05:33:09;;;;;;;12.37;5.17;;;;;;;15.95;85.61;102029.53;5346347;27;20051;-74
2022/07/16 05:35:40;;;;;;;9.77;4.47;;;;;;;16.01;85.63;102024.19;5347570;27;20522;-74
2022/07/16 05:38:12;;;;;;;7.95;4.63;;;;;;;16.10;85.52;102022.31;5347728;27;20458;-74
2022/07/16 05:40:44;;;;;;;8.97;4.47;;;;;;;16.13;85.97;102033.66;5347193;27;20114;-74
2022/07/16 05:43:15;;;;;;;11.37;5.63;;;;;;;16.18;86.35;102038.81;5347745;27;20354;-74
2022/07/16 05:45:47;;;;;;;10.67;3.97;;;;;;;16.26;85.94;102038.72;5347368;27;20038;-74
2022/07/16 05:48:18;;;;;;;9.73;4.33;;;;;;;16.37;85.70;102034.13;5345919;27;20035;-74
2022/07/16 05:50:50;;;;;;;9.43;4.50;;;;;;;16.49;85.60;102035.69;5347187;27;20139;-75
2022/07/16 05:53:21;;;;;;;9.67;4.40;;;;;;;16.56;85.41;102045.22;5346857;27;20086;-75
2022/07/16 05:55:54;;;;;;;9.65;4.15;;;;;;;16.67;85.42;102045.88;5345333;27;20039;-74
2022/07/16 05:58:25;;;;;;;7.40;4.13;;;;;;;16.72;84.63;102032.66;5345844;27;20038;-74
2022/07/16 06:00:56;;;;;;;8.30;4.50;;;;;;;16.78;84.19;102045.69;5345457;27;20031;-73
2022/07/16 06:03:28;;;;;;;6.13;3.47;;;;;;;16.85;82.67;102049.09;5346990;27;20346;-73
2022/07/16 06:05:59;;;;;;;8.70;3.30;;;;;;;16.91;82.52;102047.22;5346839;27;20121;-73
2022/07/16 06:08:31;;;;;;;8.50;3.50;;;;;;;17.06;81.90;102058.38;5346790;27;20031;-74
2022/07/16 06:11:02;;;;;;;9.48;3.95;;;;;;;17.21;81.16;102052.81;5347230;27;20023;-75
2022/07/16 06:13:33;;;;;;;5.37;3.20;;;;;;;17.30;80.77;102063.13;5345557;27;20075;-75
2022/07/16 06:16:07;;;;;;;7.53;3.00;;;;;;;17.50;79.59;102069.78;5346470;27;20038;-74
2022/07/16 06:18:38;;;;;;;9.10;2.70;;;;;;;17.46;77.63;102066.31;5346727;27;20050;-74
2022/07/16 06:21:09;;;;;;;4.60;2.27;;;;;;;17.56;77.09;102074.03;5346124;27;20397;-74
2022/07/16 06:23:41;;;;;;;5.53;2.20;;;;;;;17.53;75.25;102069.69;5345096;27;20507;-75
2022/07/16 06:26:12;;;;;;;4.90;2.00;;;;;;;17.58;75.26;102072.22;5345016;28;20023;-73
2022/07/16 06:28:44;;;;;;;4.83;1.70;;;;;;;17.53;74.21;102077.59;5346450;27;20035;-73
2022/07/16 06:31:16;;;;;;;4.72;2.08;;;;;;;17.61;74.44;102088.00;5346655;27;20084;-73
2022/07/16 06:33:47;;;;;;;4.63;2.23;;;;;;;17.61;74.40;102095.91;5346767;27;20055;-72
2022/07/16 06:36:18;;;;;;;6.90;2.60;;;;;;;17.53;74.20;102093.41;5346960;27;20032;-74
2022/07/16 06:38:50;;;;;;;5.07;2.03;;;;;;;17.50;74.93;102091.75;5347001;27;20035;-73
2022/07/16 06:41:21;;;;;;;4.07;2.30;;;;;;;17.41;74.82;102094.56;5346578;27;20112;-74
2022/07/16 06:43:52;;;;;;;7.70;2.53;;;;;;;17.42;75.23;102095.41;5346693;27;20027;-74
2022/07/16 06:46:24;;;;;;;5.23;2.63;;;;;;;17.42;75.00;102088.41;5346603;27;20077;-72
2022/07/16 06:48:55;;;;;;;8.17;2.93;;;;;;;17.48;75.77;102103.19;5344886;27;20030;-72
2022/07/16 06:51:27;;;;;;;7.20;2.27;;;;;;;17.59;74.79;102098.56;5346439;28;20070;-76
2022/07/16 06:53:58;;;;;;;4.60;2.10;;;;;;;17.64;74.84;102107.25;5333636;27;20030;-75
2022/07/16 06:56:30;;;;;;;5.37;1.97;;;;;;;17.59;73.69;102105.63;5334310;28;20123;-75
2022/07/16 06:59:02;;;;;;;4.37;2.03;;;;;;;17.55;71.02;102111.84;5327807;28;20031;-76
2022/07/16 07:01:33;;;;;;;6.60;1.88;;;;;;;17.48;70.89;102124.28;5325456;28;20114;-77
2022/07/16 07:04:04;;;;;;;9.67;2.67;;;;;;;17.53;70.52;102127.69;5326185;28;20033;-77
2022/07/16 07:06:36;;;;;;;9.47;2.07;;;;;;;17.61;70.27;102130.19;5331104;28;20099;-76
2022/07/16 07:09:07;;;;;;;8.57;2.27;;;;;;;17.68;70.56;102132.66;5334882;28;20027;-76
2022/07/16 07:11:40;;;;;;;9.33;2.10;;;;;;;17.62;69.20;102132.78;5326158;27;20076;-77
2022/07/16 07:14:12;;;;;;;8.32;2.47;;;;;;;17.65;66.68;102134.50;5343039;27;20031;-77
2022/07/16 07:16:44;;;;;;;5.68;1.55;;;;;;;17.81;63.96;102143.81;5312407;28;20311;-77
2022/07/16 07:19:15;;;;;;;5.13;1.70;;;;;;;17.84;61.83;102142.91;5343433;27;20042;-78
2022/07/16 07:21:46;;;;;;;5.97;2.00;;;;;;;18.04;60.78;102142.47;5350372;27;20027;-75
2022/07/16 07:24:18;;;;;;;6.53;1.67;;;;;;;18.10;60.33;102150.25;5348913;27;20039;-77
2022/07/16 07:26:49;;;;;;;3.93;1.57;;;;;;;18.23;60.09;102153.50;5349287;27;20485;-75
2022/07/16 07:29:21;;;;;;;5.10;2.00;;;;;;;18.33;61.43;102155.00;5349666;27;20039;-79
2022/07/16 07:31:52;;;;;;;10.33;2.20;;;;;;;18.48;62.35;102159.06;5332367;27;20024;-77
2022/07/16 07:34:23;;;;;;;5.23;1.70;;;;;;;18.43;60.34;102157.44;5325516;28;20059;-77
2022/07/16 07:36:55;;;;;;;5.47;1.60;;;;;;;18.47;60.73;102157.31;5328751;28;20031;-75
2022/07/16 07:39:26;;;;;;;5.30;1.60;;;;;;;18.59;62.05;102164.06;5329058;28;20099;-77
2022/07/16 07:41:58;;;;;;;3.67;1.40;;;;;;;18.58;60.07;102165.00;5327099;28;20042;-76
2022/07/16 07:44:29;;;;;;;2.30;1.50;;;;;;;18.47;60.79;102162.59;5329113;28;20588;-76
2022/07/16 07:47:01;;;;;;;4.27;1.73;;;;;;;18.27;60.75;102156.91;5329325;28;20039;-78
2022/07/16 07:49:33;;;;;;;4.43;1.52;;;;;;;18.28;61.98;102162.16;5327956;28;20034;-77
2022/07/16 07:52:07;;;;;;;3.73;1.93;;;;;;;18.47;62.93;102175.81;5328462;28;20451;-76
2022/07/16 07:54:38;;;;;;;5.43;1.95;;;;;;;18.51;60.73;102166.88;5327575;28;20051;-75
2022/07/16 07:57:09;;;;;;;6.70;1.70;;;;;;;18.72;60.46;102169.91;5327437;28;20478;-76
2022/07/16 07:59:41;;;;;;;5.30;1.70;;;;;;;18.91;59.92;102170.38;5327374;28;20104;-76
2022/07/16 08:02:12;;;;;;;3.77;1.80;;;;;;;19.10;59.38;102176.03;5328616;28;20036;-75
2022/07/16 08:04:45;;;;;;;3.43;1.77;;;;;;;19.24;57.83;102184.47;5327407;28;20032;-76
2022/07/16 08:07:18;;;;;;;4.68;1.55;;;;;;;19.16;56.65;102181.16;5328268;28;20122;-77
2022/07/16 08:09:49;;;;;;;5.82;1.60;;;;;;;19.14;57.03;102188.25;5328438;28;20031;-77
2022/07/16 08:12:20;;;;;;;3.83;1.60;;;;;;;19.05;57.00;102188.50;5326705;28;20043;-77
2022/07/16 08:14:52;;;;;;;5.70;1.80;;;;;;;18.93;57.61;102184.41;5328543;28;20471;-76
2022/07/16 08:17:23;;;;;;;6.63;2.00;;;;;;;19.20;59.08;102189.88;5326948;28;20393;-76
2022/07/16 08:19:54;;;;;;;3.73;1.43;;;;;;;19.38;58.26;102197.31;5329333;28;20024;-76
2022/07/16 08:22:26;;;;;;;4.67;1.70;;;;;;;19.70;58.57;102192.91;5331173;28;20085;-77
2022/07/16 08:27:48;;;;;;;3.40;1.42;;;;;;;20.19;57.63;102199.41;5338205;28;20036;-77
2022/07/16 08:30:20;;;;;;;6.73;2.83;;;;;;;20.27;55.63;102199.19;5343768;28;20023;-76
2022/07/16 08:32:52;;;;;;;4.60;1.90;;;;;;;20.34;56.05;102200.72;5347933;27;20305;-75
2022/07/16 08:35:24;;;;;;;5.07;2.13;;;;;;;20.25;55.67;102206.28;5354546;27;20032;-76
2022/07/16 08:37:55;;;;;;;4.17;1.70;;;;;;;20.01;55.33;102207.91;5352986;27;20050;-78
2022/07/16 08:40:27;;;;;;;4.87;1.80;;;;;;;20.08;53.71;102219.19;5352791;27;20016;-76
2022/07/16 08:42:59;;;;;;;4.27;1.80;;;;;;;20.37;52.99;102211.22;5354012;27;20045;-77
2022/07/16 08:45:30;;;;;;;;;;;;;;;20.63;52.86;102222.78;5347030;27;20075;-78
2022/07/16 08:48:02;;;;;;;4.27;1.70;;;;;;;20.47;51.18;102219.75;5348211;27;20007;-77
2022/07/16 08:50:34;;;;;;;3.67;1.50;;;;;;;20.59;52.02;102218.47;5348512;27;20035;-77
2022/07/16 08:53:08;;;;;;;5.68;1.40;;;;;;;20.68;51.16;102234.13;5347231;27;20034;-77
2022/07/16 08:55:41;;;;;;;2.85;1.52;;;;;;;21.19;50.55;102228.91;5335389;27;20032;-77
2022/07/16 08:58:13;;;;;;;3.53;1.63;;;;;;;21.21;49.24;102235.03;5326189;28;20027;-77
2022/07/16 09:00:45;;;;;;;6.57;1.80;;;;;;;21.38;48.81;102231.78;5325582;28;20036;-76
2022/07/16 09:03:17;;;;;;;4.88;1.50;;;;;;;21.62;48.99;102233.63;5326952;28;20024;-77
2022/07/16 09:05:50;;;;;;;5.07;2.20;;;;;;;21.23;48.84;102231.41;5327442;28;20031;-77
2022/07/16 09:08:21;;;;;;;6.45;2.30;;;;;;;21.06;48.98;102236.44;5331228;28;20084;-77
2022/07/16 09:10:53;;;;;;;3.50;1.20;;;;;;;20.89;48.96;102243.16;5333276;28;20103;-76
2022/07/16 09:13:26;;;;;;;5.80;2.00;;;;;;;20.96;49.45;102249.09;5331474;28;20360;-77
2022/07/16 09:15:58;;;;;;;5.93;1.90;;;;;;;20.96;48.15;102241.16;5327188;28;20111;-76
2022/07/16 09:18:30;;;;;;;7.35;2.47;;;;;;;20.59;48.18;102244.97;5327154;28;20038;-76
2022/07/16 09:21:01;;;;;;;8.93;2.50;;;;;;;20.63;48.67;102240.47;5326778;28;20351;-76
2022/07/16 09:23:37;;;;;;;5.50;1.67;;;;;;;20.49;49.75;102251.47;5333437;28;20031;-76
2022/07/16 09:26:10;;;;;;;3.95;1.40;;;;;;;20.64;50.00;102247.50;5328592;28;20387;-75
2022/07/16 09:28:52;;;;;;;4.80;1.73;;;;;;;20.99;48.67;102248.16;5327188;28;20466;-76
2022/07/16 09:31:35;;;;;;;3.45;1.40;;;;;;;21.38;47.48;102243.28;5324973;28;20036;-76
2022/07/16 09:34:19;;;;;;;3.45;1.92;;;;;;;21.79;47.93;102251.56;5326838;28;20139;-76
2022/07/16 09:37:00;;;;;;;3.05;1.40;;;;;;;21.78;46.99;102246.31;5326456;28;20092;-78
2022/07/16 09:39:33;;;;;;;5.22;1.80;;;;;;;21.86;45.64;102254.84;5326418;28;20483;-77
2022/07/16 09:42:05;;;;;;;46.85;7.30;;;;;;;21.93;46.08;102258.13;5324768;28;20023;-76
2022/07/16 09:44:42;;;;;;;9.53;2.77;;;;;;;21.78;46.37;102262.22;5325018;28;20093;-76
2022/07/16 09:47:14;;;;;;;4.88;1.70;;;;;;;22.10;46.31;102262.81;5325107;28;20026;-77
2022/07/16 09:49:53;;;;;;;3.22;1.60;;;;;;;22.02;43.48;102260.44;5332115;27;20042;-75
2022/07/16 09:52:32;;;;;;;4.32;2.10;;;;;;;22.50;43.64;102267.50;5346632;27;20027;-76
2022/07/16 09:55:04;;;;;;;4.30;1.60;;;;;;;22.67;41.52;102265.94;5342889;27;20040;-77
2022/07/16 09:57:37;;;;;;;3.85;1.73;;;;;;;22.38;42.95;102279.47;5324605;28;20046;-76
2022/07/16 10:00:09;;;;;;;7.38;1.70;;;;;;;22.57;42.57;102271.66;5324905;28;20028;-77
2022/07/16 10:02:42;;;;;;;8.80;1.70;;;;;;;22.71;42.07;102270.22;5335119;27;20031;-76
2022/07/16 10:05:13;;;;;;;6.28;2.15;;;;;;;23.08;41.51;102274.06;5344875;27;20039;-79
2022/07/16 10:07:45;;;;;;;5.77;1.70;;;;;;;22.73;41.52;102274.56;5347220;27;20020;-78
2022/07/16 10:10:16;;;;;;;4.20;1.77;;;;;;;22.30;40.29;102286.00;5345520;27;20027;-75
2022/07/16 10:12:48;;;;;;;3.67;1.30;;;;;;;23.11;38.36;102289.91;5346648;27;20030;-76
2022/07/16 10:15:20;;;;;;;2.38;1.35;;;;;;;24.94;36.11;102280.75;5347532;27;20023;-76
2022/07/16 10:17:52;;;;;;;6.05;1.75;;;;;;;26.17;32.31;102274.34;5345741;27;20062;-77
2022/07/16 10:20:24;;;;;;;3.22;1.73;;;;;;;26.87;31.26;102273.09;5343515;27;20109;-76
2022/07/16 10:22:55;;;;;;;6.13;1.80;;;;;;;28.01;30.40;102293.94;5336414;27;20063;-78
2022/07/16 10:25:28;;;;;;;10.20;1.85;;;;;;;28.38;29.74;102298.75;5338580;27;20020;-77
2022/07/16 10:28:00;;;;;;;4.00;1.92;;;;;;;28.85;29.55;102300.19;5325419;28;20028;-77
2022/07/16 10:30:31;;;;;;;;;;;;;;;29.43;27.43;102298.09;5326090;28;20038;-75
2022/07/16 10:33:02;;;;;;;10.20;2.00;;;;;;;27.99;28.97;102303.88;5332964;28;19919;-76
2022/07/16 10:35:40;;;;;;;4.97;1.80;;;;;;;27.71;30.55;102294.00;5348909;27;20047;-76
2022/07/16 10:38:13;;;;;;;6.60;1.52;;;;;;;27.94;30.24;102303.31;5347314;27;20066;-76
2022/07/16 10:40:46;;;;;;;3.50;1.73;;;;;;;27.10;32.32;102298.53;5349226;27;20027;-80
2022/07/16 10:43:22;;;;;;;6.47;1.80;;;;;;;27.25;31.93;102296.75;5351528;27;20035;-78
2022/07/16 10:45:59;;;;;;;7.07;1.95;;;;;;;26.73;31.75;102303.34;5351572;27;20436;-76
2022/07/16 10:48:51;;;;;;;5.35;1.83;;;;;;;28.95;30.36;102310.28;5350905;27;20049;-77
2022/07/16 10:51:24;;;;;;;6.68;1.85;;;;;;;28.63;27.82;102300.75;5347770;27;20478;-76
2022/07/16 10:54:01;;;;;;;4.78;1.83;;;;;;;27.65;29.88;102303.25;5349921;27;20035;-76
2022/07/16 10:56:47;;;;;;;9.35;2.08;;;;;;;25.61;32.31;102304.94;5352212;27;20023;-75
2022/07/16 10:59:21;;;;;;;4.10;2.17;;;;;;;26.45;33.09;102309.34;5350698;27;20027;-75
2022/07/16 11:01:56;;;;;;;4.40;1.85;;;;;;;26.79;29.53;102308.34;5349245;27;20027;-74
2022/07/16 11:04:31;;;;;;;4.53;1.95;;;;;;;28.13;29.39;102318.25;5355388;27;20027;-75
2022/07/16 11:07:10;;;;;;;2.70;1.77;;;;;;;27.67;28.75;102308.53;5352912;27;20446;-76
2022/07/16 11:09:47;;;;;;;3.55;1.80;;;;;;;27.96;29.99;102311.25;5351974;27;20122;-76
2022/07/16 11:12:29;;;;;;;5.97;1.80;;;;;;;26.82;31.43;102304.63;5351534;27;20042;-75
2022/07/16 11:15:03;;;;;;;10.77;2.25;;;;;;;25.10;34.30;102313.72;5351274;27;20411;-75
2022/07/16 11:17:34;;;;;;;12.48;2.30;;;;;;;24.60;38.48;102311.72;5351128;27;20110;-75
2022/07/16 11:20:09;;;;;;;;;;;;;;;25.38;35.89;102317.66;5350767;27;20440;-78
2022/07/16 11:22:40;;;;;;;3.75;1.60;;;;;;;25.00;35.60;102311.56;5349500;27;20335;-76
2022/07/16 11:25:12;;;;;;;5.47;1.83;;;;;;;28.00;31.42;102318.16;5350133;27;20059;-75
2022/07/16 11:27:43;;;;;;;5.50;1.90;;;;;;;29.68;31.31;102301.72;5348799;27;20081;-76
2022/07/16 11:30:15;;;;;;;;;;;;;;;30.49;27.01;102321.97;5351050;27;20116;-73
2022/07/16 11:32:47;;;;;;;5.93;1.95;;;;;;;28.92;29.31;102320.28;5348765;27;20006;-75
2022/07/16 11:35:18;;;;;;;5.28;1.90;;;;;;;27.44;30.09;102324.19;5350437;27;20084;-75
2022/07/16 11:37:54;;;;;;;;;;;;;;;27.40;31.46;102324.44;5346293;27;20327;-76
2022/07/16 11:40:37;;;;;;;4.30;1.77;;;;;;;25.52;34.46;102327.66;5355523;27;19911;-76
2022/07/16 11:43:08;;;;;;;4.50;1.75;;;;;;;26.43;33.01;102328.16;5350011;27;20023;-77
2022/07/16 11:45:41;;;;;;;;;;;;;;;27.16;31.21;102319.59;5350334;27;20041;-78
2022/07/16 11:48:14;;;;;;;5.25;2.00;;;;;;;28.28;30.55;102321.78;5349889;27;20346;-78
2022/07/16 11:50:47;;;;;;;4.53;1.67;;;;;;;30.18;25.76;102321.50;5349132;27;20408;-76
2022/07/16 11:53:32;;;;;;;3.65;1.73;;;;;;;31.31;24.66;102320.41;5348207;27;20147;-76
2022/07/16 11:56:05;;;;;;;4.65;1.92;;;;;;;30.92;25.07;102318.78;5350083;27;20027;-76
2022/07/16 11:58:36;;;;;;;4.32;1.70;;;;;;;29.99;25.36;102321.09;5347785;27;20126;-82